Time;durP1;ratioP1;P1;durP2;ratioP2;P2;SDS_P1;SDS_P2;PMS_P1;PMS_P2;Temp;Humidity;BMP_temperature;BMP_pressure;BME280_temperature;BME280_humidity;BME280_pressure;Samples;Min_cycle;Max_cycle;Signal;HPM_P1;HPM_P2
2021/01/26 00:01:30;;;;;;;;;;;;;;;;;;;;;
2021/01/26 00:04:04;;;;;;;45.30;38.80;;;2.70;99.90;;;;;;6186790;23;20418;-83
2021/01/26 00:06:47;;;;;;;;;;;;;;;;;;;;;
2021/01/26 00:09:34;;;;;;;53.33;41.37;;;2.60;99.90;;;;;;6254349;22;20183;-83
2021/01/26 00:12:12;;;;;;;46.20;41.57;;;2.60;99.90;;;;;;6307237;22;20408;-83
2021/01/26 00:14:44;;;;;;;45.90;41.13;;;2.60;99.90;;;;;;6305331;22;20829;-83
2021/01/26 00:17:16;;;;;;;57.57;47.50;;;2.50;99.90;;;;;;6307199;22;20905;-83
2021/01/26 00:19:45;;;;;;;50.70;45.75;;;2.60;99.90;;;;;;6294876;22;20409;-83
2021/01/26 00:22:15;;;;;;;47.58;42.13;;;2.50;99.90;;;;;;6317741;22;20599;-83
2021/01/26 00:24:47;;;;;;;39.60;34.23;;;2.50;99.90;;;;;;6307192;22;20156;-83
2021/01/26 00:27:16;;;;;;;43.45;37.40;;;2.70;99.90;;;;;;6307309;22;20503;-83
2021/01/26 00:29:47;;;;;;;36.70;32.83;;;2.70;99.90;;;;;;6307380;22;20201;-82
2021/01/26 00:32:23;;;;;;;48.20;36.00;;;2.70;99.90;;;;;;6317792;22;20445;-82
2021/01/26 00:34:55;;;;;;;39.43;34.40;;;2.70;99.90;;;;;;6306103;22;20405;-83
2021/01/26 00:37:58;;;;;;;35.37;31.83;;;2.80;99.90;;;;;;6317871;22;20459;-82
2021/01/26 00:40:27;;;;;;;37.30;29.83;;;2.70;99.90;;;;;;6317872;22;20401;-82
2021/01/26 00:45:45;;;;;;;33.33;24.27;;;2.70;99.90;;;;;;6231921;22;20951;-83
2021/01/26 00:48:19;;;;;;;49.43;32.30;;;2.90;99.90;;;;;;6276397;22;20395;-82
2021/01/26 00:51:29;;;;;;;37.40;30.00;;;2.80;99.90;;;;;;6285052;22;20426;-82
2021/01/26 00:54:16;;;;;;;34.10;30.25;;;2.90;99.90;;;;;;6267550;22;20394;-83
2021/01/26 01:00:05;;;;;;;34.80;27.83;;;2.90;99.90;;;;;;6288004;22;20409;-83
2021/01/26 01:02:37;;;;;;;34.63;22.73;;;2.90;99.90;;;;;;6288461;22;20721;-82
2021/01/26 01:05:10;;;;;;;37.43;28.13;;;3.00;99.90;;;;;;6287263;22;20410;-82
2021/01/26 01:10:40;;;;;;;;;;;;;;;;;;;;;
2021/01/26 01:13:24;;;;;;;31.90;26.93;;;3.10;99.90;;;;;;6277660;22;20452;-83
2021/01/26 01:16:02;;;;;;;34.47;26.97;;;3.00;99.90;;;;;;6288116;22;20414;-83
2021/01/26 01:18:30;;;;;;;30.70;23.93;;;3.00;99.90;;;;;;6288137;22;20406;-84
2021/01/26 01:23:56;;;;;;;39.60;26.42;;;3.00;99.90;;;;;;6275660;22;20535;-84
2021/01/26 01:26:53;;;;;;;28.80;21.80;;;2.90;99.90;;;;;;6288413;22;20164;-83
2021/01/26 01:34:40;;;;;;;23.73;18.30;;;3.20;99.90;;;;;;6264458;22;20854;-83
2021/01/26 01:37:17;;;;;;;33.50;22.20;;;3.20;99.90;;;;;;6278080;22;20402;-82
2021/01/26 01:39:50;;;;;;;34.97;20.33;;;3.00;99.90;;;;;;6276942;22;20395;-83
2021/01/26 01:42:18;;;;;;;39.43;28.37;;;3.00;99.90;;;;;;6287830;22;20905;-82
2021/01/26 01:44:47;;;;;;;33.92;25.25;;;2.90;99.90;;;;;;6277630;22;20866;-83
2021/01/26 01:47:37;;;;;;;31.03;26.07;;;2.80;99.90;;;;;;6278045;22;20156;-83
2021/01/26 01:50:23;;;;;;;;;;;;;;;;;;;;;
2021/01/26 01:53:00;;;;;;;30.67;23.33;;;2.80;99.90;;;;;;6276923;22;20438;-83
2021/01/26 01:55:37;;;;;;;30.37;23.00;;;2.90;99.90;;;;;;6287776;22;20409;-82
2021/01/26 01:58:26;;;;;;;26.88;24.10;;;2.90;99.90;;;;;;6287838;22;20426;-83
2021/01/26 02:00:57;;;;;;;27.87;25.10;;;2.80;99.90;;;;;;6288067;22;20157;-83
2021/01/26 02:03:35;;;;;;;31.90;28.57;;;2.80;99.90;;;;;;6277953;22;20426;-83
2021/01/26 02:06:19;;;;;;;30.23;26.60;;;2.90;99.90;;;;;;6286228;22;20402;-82
2021/01/26 02:09:21;;;;;;;45.67;27.60;;;2.90;99.90;;;;;;6297671;22;20437;-83
2021/01/26 02:15:11;;;;;;;31.50;24.33;;;2.90;99.90;;;;;;6243916;23;20942;-83
2021/01/26 02:18:13;;;;;;;;;;;;;;;;;;;;;
2021/01/26 02:21:19;;;;;;;28.30;25.33;;;2.90;99.90;;;;;;6293791;22;20190;-83
2021/01/26 02:24:23;;;;;;;24.27;22.07;;;3.00;99.90;;;;;;6318744;22;20182;-83
2021/01/26 02:27:33;;;;;;;42.47;26.90;;;2.90;99.90;;;;;;6308506;22;20397;-83
2021/01/26 02:30:26;;;;;;;31.20;21.30;;;3.00;99.90;;;;;;6308473;22;20422;-82
2021/01/26 02:33:54;;;;;;;;;;;;;;;;;;;;;
2021/01/26 02:36:51;;;;;;;25.20;22.30;;;3.00;99.90;;;;;;6211570;23;20416;-83
2021/01/26 02:42:48;;;;;;;37.97;24.43;;;3.20;99.90;;;;;;6232366;22;20461;-84
2021/01/26 02:45:27;;;;;;;27.97;17.87;;;3.10;99.90;;;;;;6287596;22;20411;-84
2021/01/26 02:51:14;;;;;;;51.17;22.07;;;3.00;99.90;;;;;;6283306;22;20541;-84
2021/01/26 02:53:54;;;;;;;28.93;25.97;;;3.00;99.90;;;;;;6277059;22;20399;-83
2021/01/26 02:56:29;;;;;;;37.63;33.57;;;2.80;99.90;;;;;;6277033;22;20410;-83
2021/01/26 02:59:24;;;;;;;29.63;26.80;;;2.60;99.90;;;;;;6287623;22;20410;-83
2021/01/26 03:05:45;;;;;;;29.40;25.70;;;2.70;99.90;;;;;;6149579;23;20925;-84
2021/01/26 03:11:18;;;;;;;;;;;;;;;;;;;;;
2021/01/26 03:17:28;;;;;;;22.63;17.43;;;2.80;99.90;;;;;;6182950;23;20169;-83
2021/01/26 03:20:39;;;;;;;24.23;20.00;;;2.90;99.90;;;;;;6285672;22;20743;-84
2021/01/26 03:23:47;;;;;;;;;;;;;;;;;;;;;
2021/01/26 03:27:05;;;;;;;21.80;17.90;;;3.00;99.90;;;;;;6257415;22;20504;-85
2021/01/26 03:30:16;;;;;;;19.52;16.75;;;3.00;99.90;;;;;;6286877;22;20438;-84
2021/01/26 03:32:50;;;;;;;24.70;19.80;;;3.00;99.90;;;;;;6286998;22;20187;-84
2021/01/26 03:38:55;;;;;;;25.30;19.87;;;3.10;99.90;;;;;;6286906;22;20978;-84
2021/01/26 03:41:38;;;;;;;;;;;;;;;;;;;;;
2021/01/26 03:47:38;;;;;;;;;;;;;;;;;;;;;
2021/01/26 03:50:43;;;;;;;40.80;36.77;;;3.00;99.90;;;;;;6274761;22;20491;-83
2021/01/26 03:53:48;;;;;;;39.40;35.90;;;2.90;99.90;;;;;;6286770;22;20403;-83
2021/01/26 03:56:28;;;;;;;29.10;26.23;;;2.80;99.90;;;;;;6276919;22;20712;-83
2021/01/26 03:59:20;;;;;;;36.95;33.70;;;2.80;99.90;;;;;;6276837;22;20398;-83
2021/01/26 04:02:30;;;;;;;41.50;37.97;;;2.90;99.90;;;;;;6276887;22;20161;-84
2021/01/26 04:05:08;;;;;;;37.63;34.77;;;2.70;99.90;;;;;;6285311;22;20395;-84
2021/01/26 04:07:54;;;;;;;33.42;30.00;;;2.80;99.90;;;;;;6302061;22;20866;-83
2021/01/26 04:10:49;;;;;;;41.03;36.97;;;2.80;99.90;;;;;;6317241;22;20242;-83
2021/01/26 04:13:54;;;;;;;;;;;;;;;;;;;;;
2021/01/26 04:16:58;;;;;;;;;;;;;;;;;;;;;
2021/01/26 04:20:02;;;;;;;;;;;;;;;;;;;;;
2021/01/26 04:22:54;;;;;;;31.47;28.60;;;2.90;99.90;;;;;;6133286;23;20438;-83
2021/01/26 04:26:02;;;;;;;31.73;28.83;;;2.80;99.90;;;;;;6317412;22;20405;-83
2021/01/26 04:29:01;;;;;;;;;;;;;;;;;;;;;
2021/01/26 04:31:55;;;;;;;35.07;32.20;;;2.90;99.90;;;;;;6317456;22;20452;-83
2021/01/26 04:34:44;;;;;;;33.47;30.63;;;2.90;99.90;;;;;;6307047;22;20484;-84
2021/01/26 04:37:39;;;;;;;31.93;28.70;;;2.80;99.90;;;;;;6194458;23;20555;-83
2021/01/26 04:40:14;;;;;;;33.10;30.20;;;2.90;99.90;;;;;;6288184;22;20448;-83
2021/01/26 04:43:17;;;;;;;29.98;27.35;;;2.90;99.90;;;;;;6309603;22;20400;-83
2021/01/26 04:46:41;;;;;;;;;;;;;;;;;;;;;
2021/01/26 04:52:29;;;;;;;27.67;25.40;;;2.90;99.90;;;;;;6210089;22;20451;-82
2021/01/26 04:55:16;;;;;;;29.70;24.55;;;3.10;99.90;;;;;;6227214;23;20503;-81
2021/01/26 04:58:08;;;;;;;27.50;19.00;;;3.00;99.90;;;;;;6216097;23;20165;-84
2021/01/26 05:00:48;;;;;;;27.13;24.80;;;3.00;99.90;;;;;;6207682;23;20459;-84
2021/01/26 05:03:44;;;;;;;27.17;24.70;;;3.10;99.90;;;;;;6217057;23;20903;-84
2021/01/26 05:06:17;;;;;;;28.43;26.37;;;3.00;99.90;;;;;;6227966;23;20397;-84
2021/01/26 05:08:50;;;;;;;26.90;24.07;;;2.90;99.90;;;;;;6247572;23;20396;-83
2021/01/26 05:11:19;;;;;;;22.30;20.37;;;2.90;99.90;;;;;;6247702;23;20438;-83
2021/01/26 05:13:50;;;;;;;24.27;21.87;;;2.80;99.90;;;;;;6247794;23;20396;-83
2021/01/26 05:16:24;;;;;;;28.93;26.40;;;2.60;99.90;;;;;;6247720;23;20431;-83
2021/01/26 05:18:56;;;;;;;33.47;30.20;;;2.40;99.90;;;;;;6247686;23;20400;-83
2021/01/26 05:21:28;;;;;;;59.07;53.83;;;2.40;99.90;;;;;;6246471;23;20400;-83
2021/01/26 05:24:05;;;;;;;66.50;61.50;;;2.30;99.90;;;;;;6247600;23;20404;-83
2021/01/26 05:26:37;;;;;;;78.57;72.97;;;2.30;99.90;;;;;;6247562;23;20422;-83
2021/01/26 05:29:34;;;;;;;83.07;77.40;;;2.30;99.90;;;;;;6247454;23;20436;-84
2021/01/26 05:41:43;;;;;;;73.40;68.10;;;2.50;99.90;;;;;;6232311;23;20415;-84
2021/01/26 05:44:43;;;;;;;63.00;58.97;;;2.60;99.90;;;;;;6246629;23;20490;-84
2021/01/26 05:47:29;;;;;;;51.97;48.37;;;2.70;99.90;;;;;;6232337;23;20407;-84
2021/01/26 05:52:46;;;;;;;56.40;52.30;;;2.70;99.90;;;;;;6239740;22;20445;-85
2021/01/26 05:55:24;;;;;;;43.67;40.33;;;2.60;99.90;;;;;;6288099;22;20399;-84
2021/01/26 05:58:05;;;;;;;45.87;41.67;;;2.50;99.90;;;;;;6277916;22;20429;-82
2021/01/26 06:00:37;;;;;;;44.77;41.57;;;2.50;99.90;;;;;;6287763;22;20484;-83
2021/01/26 06:03:16;;;;;;;45.67;42.67;;;2.40;99.90;;;;;;6287521;22;20421;-83
2021/01/26 06:05:43;;;;;;;54.53;50.17;;;2.50;99.90;;;;;;6275852;22;20399;-82
2021/01/26 06:08:13;;;;;;;60.10;55.80;;;2.40;99.90;;;;;;6277744;22;20453;-82
2021/01/26 06:10:41;;;;;;;58.58;54.00;;;2.30;99.90;;;;;;6277654;22;20430;-83
2021/01/26 06:13:11;;;;;;;65.27;60.67;;;2.40;99.90;;;;;;6277511;22;20163;-83
2021/01/26 06:15:42;;;;;;;68.10;62.23;;;2.40;99.90;;;;;;6265495;22;20761;-83
2021/01/26 06:18:18;;;;;;;68.67;64.27;;;2.40;99.90;;;;;;6288047;22;20399;-83
2021/01/26 06:21:05;;;;;;;72.07;67.23;;;2.40;99.90;;;;;;6207088;22;20406;-83
2021/01/26 06:23:32;;;;;;;66.28;61.65;;;2.30;99.90;;;;;;6277622;22;20398;-80
2021/01/26 06:26:01;;;;;;;74.27;69.40;;;2.30;99.90;;;;;;6277203;22;20156;-80
2021/01/26 06:28:58;;;;;;;71.93;67.57;;;2.30;99.90;;;;;;6277682;22;20398;-81
2021/01/26 06:31:51;;;;;;;61.90;57.50;;;2.40;99.90;;;;;;6277426;22;20492;-83
2021/01/26 06:34:40;;;;;;;54.10;49.73;;;2.40;99.90;;;;;;6286136;22;20406;-81
2021/01/26 06:37:21;;;;;;;56.87;51.33;;;2.40;99.90;;;;;;6287415;22;20867;-82
2021/01/26 06:40:09;;;;;;;53.13;49.03;;;2.50;99.90;;;;;;6277161;22;20402;-82
2021/01/26 06:42:49;;;;;;;50.47;46.47;;;2.40;99.90;;;;;;6277406;22;20702;-81
2021/01/26 06:45:24;;;;;;;54.90;50.93;;;2.40;99.90;;;;;;6277242;22;20402;-82
2021/01/26 06:48:37;;;;;;;46.83;42.57;;;2.40;99.90;;;;;;6287360;22;20394;-82
2021/01/26 06:51:31;;;;;;;39.60;37.03;;;2.50;99.90;;;;;;6268959;22;20434;-82
2021/01/26 06:54:14;;;;;;;37.77;34.70;;;2.50;99.90;;;;;;6238378;23;20443;-82
2021/01/26 06:57:22;;;;;;;30.60;28.10;;;2.50;99.90;;;;;;6245900;23;20875;-80
2021/01/26 07:00:18;;;;;;;31.43;28.33;;;2.70;99.90;;;;;;6198874;23;20196;-80
2021/01/26 07:03:14;;;;;;;36.13;32.57;;;2.60;99.90;;;;;;6246596;23;20400;-80
2021/01/26 07:06:25;;;;;;;36.03;32.80;;;2.50;99.90;;;;;;6233436;23;20469;-79
2021/01/26 07:09:16;;;;;;;43.23;35.10;;;2.30;99.90;;;;;;6241107;23;20247;-80
2021/01/26 07:12:19;;;;;;;42.63;38.78;;;2.20;99.90;;;;;;6256602;23;20427;-81
2021/01/26 07:15:12;;;;;;;43.27;40.20;;;2.30;99.90;;;;;;6246555;23;20231;-81
2021/01/26 07:18:01;;;;;;;48.73;45.17;;;2.30;99.90;;;;;;6245303;23;20494;-82
2021/01/26 07:20:34;;;;;;;50.93;46.50;;;2.30;99.90;;;;;;6244969;23;20410;-81
2021/01/26 07:23:22;;;;;;;48.08;44.45;;;2.30;99.90;;;;;;6256582;23;20509;-81
2021/01/26 07:26:34;;;;;;;47.80;43.80;;;2.40;99.90;;;;;;6246190;23;20157;-80
2021/01/26 07:29:32;;;;;;;45.07;42.23;;;2.40;99.90;;;;;;6246383;23;20482;-80
2021/01/26 07:32:04;;;;;;;34.80;31.93;;;2.50;99.90;;;;;;6246226;23;20470;-79
2021/01/26 07:34:36;;;;;;;42.10;38.90;;;2.40;99.90;;;;;;6244582;23;20772;-80
2021/01/26 07:37:09;;;;;;;43.47;39.57;;;2.40;99.90;;;;;;6245906;23;20594;-80
2021/01/26 07:39:43;;;;;;;47.50;43.47;;;2.50;99.90;;;;;;6246284;23;20478;-83
2021/01/26 07:42:15;;;;;;;47.25;43.45;;;2.60;99.90;;;;;;6246304;23;20403;-83
2021/01/26 07:44:47;;;;;;;45.37;42.17;;;2.50;99.90;;;;;;6245977;23;20236;-84
2021/01/26 07:47:22;;;;;;;38.13;34.60;;;2.60;99.90;;;;;;6246023;23;20400;-82
2021/01/26 07:49:55;;;;;;;42.53;39.30;;;2.60;99.90;;;;;;6244793;23;20399;-82
2021/01/26 07:52:24;;;;;;;36.83;33.67;;;2.70;99.90;;;;;;6255729;22;20450;-81
2021/01/26 07:54:59;;;;;;;51.00;31.10;;;2.60;99.90;;;;;;6287019;22;20726;-81
2021/01/26 07:57:40;;;;;;;35.30;31.97;;;2.60;99.90;;;;;;6276753;22;20481;-81
2021/01/26 08:00:10;;;;;;;31.05;27.50;;;2.60;99.90;;;;;;6276782;22;20461;-81
2021/01/26 08:02:43;;;;;;;32.70;29.37;;;2.70;99.90;;;;;;6264369;22;20231;-81
2021/01/26 08:05:13;;;;;;;37.60;27.37;;;2.70;99.90;;;;;;6275144;22;20463;-83
2021/01/26 08:07:42;;;;;;;26.37;24.27;;;2.70;99.90;;;;;;6276551;22;20436;-82
2021/01/26 08:10:59;;;;;;;27.40;25.40;;;2.90;99.90;;;;;;6232792;22;20412;-83
2021/01/26 08:14:04;;;;;;;;;;;;;;;;;;;;;
2021/01/26 08:17:00;;;;;;;29.60;26.67;;;2.80;99.90;;;;;;6090571;23;20414;-83
2021/01/26 08:26:09;;;;;;;25.50;23.00;;;2.90;99.90;;;;;;6275069;22;20902;-84
2021/01/26 08:28:57;;;;;;;24.87;21.97;;;3.00;99.90;;;;;;6285373;22;20732;-83
2021/01/26 08:31:48;;;;;;;26.80;24.40;;;2.90;99.90;;;;;;6274590;22;20459;-83
2021/01/26 08:34:42;;;;;;;52.00;22.02;;;2.90;99.90;;;;;;6284006;22;20445;-84
2021/01/26 08:37:53;;;;;;;19.50;18.00;;;2.90;99.90;;;;;;6284253;22;20156;-84
2021/01/26 08:40:45;;;;;;;22.73;16.95;;;2.90;99.90;;;;;;6274579;22;20399;-83
2021/01/26 08:43:57;;;;;;;;;;;;;;;;;;;;;
2021/01/26 08:46:38;;;;;;;18.67;16.60;;;3.00;99.90;;;;;;6274149;22;20168;-84
2021/01/26 09:06:17;;;;;;;27.47;12.73;;;3.10;99.90;;;;;;5755119;24;20344;-84
2021/01/26 09:09:31;;;;;;;16.37;11.30;;;3.10;99.90;;;;;;5901720;24;20485;-83
2021/01/26 09:12:26;;;;;;;;;;;;;;;;;;;;;
2021/01/26 09:15:30;;;;;;;16.20;12.40;;;3.20;99.90;;;;;;6159835;23;20167;-83
2021/01/26 09:18:12;;;;;;;18.90;14.53;;;3.10;99.90;;;;;;6149602;23;20440;-83
2021/01/26 09:21:05;;;;;;;;;;;;;;;;;;;;;
2021/01/26 09:23:53;;;;;;;27.30;17.47;;;3.20;99.90;;;;;;6161106;23;20426;-83
2021/01/26 09:26:42;;;;;;;;;;;;;;;;;;;;;
2021/01/26 09:29:31;;;;;;;30.00;16.30;;;3.30;99.90;;;;;;6244772;23;20427;-83
2021/01/26 09:32:22;;;;;;;14.63;13.23;;;3.40;99.90;;;;;;6245644;23;20182;-83
2021/01/26 09:35:28;;;;;;;;;;;;;;;;;;;;;
2021/01/26 09:38:47;;;;;;;;;;;;;;;;;;;;;
2021/01/26 09:42:06;;;;;;;;;;;;;;;;;;;;;
2021/01/26 09:44:42;;;;;;;25.20;14.27;;;3.40;99.90;;;;;;6082386;23;20503;-83
2021/01/26 09:47:52;;;;;;;22.57;15.90;;;3.40;99.90;;;;;;6245428;23;20718;-84
2021/01/26 09:50:47;;;;;;;21.20;16.07;;;3.40;99.90;;;;;;6159624;23;20422;-84
2021/01/26 09:53:47;;;;;;;20.23;15.50;;;3.40;99.90;;;;;;6172727;22;20435;-84
2021/01/26 09:56:38;;;;;;;26.47;17.00;;;3.40;99.90;;;;;;6286044;22;20411;-83
2021/01/26 09:59:46;;;;;;;17.73;12.00;;;3.50;99.90;;;;;;6273311;22;20407;-84
2021/01/26 10:02:20;;;;;;;17.10;12.40;;;3.50;99.90;;;;;;6245270;22;20887;-82
2021/01/26 10:04:54;;;;;;;20.33;15.30;;;3.50;99.90;;;;;;6273985;22;20399;-83
2021/01/26 10:07:28;;;;;;;25.23;15.90;;;3.50;99.90;;;;;;6285120;22;20789;-82
2021/01/26 10:10:20;;;;;;;30.27;17.37;;;3.50;99.90;;;;;;6284808;22;20399;-83
2021/01/26 10:12:47;;;;;;;18.03;15.33;;;3.50;99.90;;;;;;6275343;22;20410;-82
2021/01/26 10:15:19;;;;;;;31.40;15.50;;;3.50;99.90;;;;;;6274915;22;20465;-83
2021/01/26 10:17:49;;;;;;;27.20;16.10;;;3.50;99.90;;;;;;6285299;22;20418;-82
2021/01/26 10:20:25;;;;;;;13.80;12.33;;;3.60;99.90;;;;;;6283542;22;20465;-82
2021/01/26 10:23:04;;;;;;;18.53;16.13;;;3.60;99.90;;;;;;6285384;22;20413;-82
2021/01/26 10:25:31;;;;;;;26.40;15.43;;;3.80;99.90;;;;;;6285205;22;20406;-81
2021/01/26 10:28:08;;;;;;;27.90;13.40;;;3.80;99.90;;;;;;6273924;22;20458;-82
2021/01/26 10:30:41;;;;;;;19.87;13.60;;;4.00;99.90;;;;;;6276311;22;20394;-82
2021/01/26 10:33:10;;;;;;;20.73;13.20;;;4.00;99.90;;;;;;6279138;22;20403;-82
2021/01/26 10:35:46;;;;;;;20.73;13.60;;;4.10;99.90;;;;;;6262996;22;20404;-82
2021/01/26 10:38:42;;;;;;;18.77;15.60;;;3.90;99.90;;;;;;6274457;22;20445;-81
2021/01/26 10:41:16;;;;;;;13.15;11.30;;;4.00;99.90;;;;;;6282570;22;20414;-81
2021/01/26 10:43:43;;;;;;;22.23;13.97;;;3.90;99.90;;;;;;6276533;22;20152;-81
2021/01/26 10:46:12;;;;;;;19.03;17.00;;;4.10;99.90;;;;;;6276647;22;20885;-81
2021/01/26 10:48:43;;;;;;;19.23;12.50;;;4.10;99.90;;;;;;6276159;22;20407;-82
2021/01/26 10:51:46;;;;;;;16.73;12.17;;;4.20;99.90;;;;;;6274787;22;20520;-82
2021/01/26 10:54:17;;;;;;;27.65;16.33;;;4.30;99.90;;;;;;6276089;22;20441;-81
2021/01/26 10:57:21;;;;;;;21.60;12.30;;;4.30;99.90;;;;;;6277378;22;20157;-81
2021/01/26 11:00:04;;;;;;;;;;;;;;;;;;;;;
2021/01/26 11:02:34;;;;;;;21.20;12.50;;;4.50;99.90;;;;;;6275419;22;20403;-82
2021/01/26 11:05:05;;;;;;;21.70;15.63;;;4.40;99.90;;;;;;6285165;22;20469;-82
2021/01/26 11:07:31;;;;;;;14.07;12.20;;;4.40;99.90;;;;;;6276359;22;20395;-81
2021/01/26 11:16:33;;;;;;;;;;;;;;;;;;;;;
2021/01/26 11:19:00;;;;;;;14.57;10.30;;;4.50;99.90;;;;;;6284804;22;20410;-82
2021/01/26 11:21:27;;;;;;;28.57;11.33;;;4.70;99.90;;;;;;6275058;22;20160;-81
2021/01/26 11:23:54;;;;;;;18.27;11.10;;;4.90;99.90;;;;;;6276395;22;20441;-81
2021/01/26 11:26:22;;;;;;;21.27;11.77;;;4.90;99.90;;;;;;6276487;22;20914;-81
2021/01/26 11:28:49;;;;;;;22.13;11.02;;;4.70;99.90;;;;;;6277086;22;20454;-81
2021/01/26 11:31:17;;;;;;;16.13;10.00;;;4.50;99.90;;;;;;6276667;22;20176;-81
2021/01/26 11:33:45;;;;;;;20.50;10.70;;;4.50;99.90;;;;;;6276514;22;20406;-81
2021/01/26 11:36:12;;;;;;;18.57;11.60;;;4.40;99.90;;;;;;6275482;22;20482;-81
2021/01/26 11:38:38;;;;;;;14.13;10.07;;;4.30;99.90;;;;;;6276917;22;20398;-81
2021/01/26 11:41:05;;;;;;;18.70;10.73;;;4.20;99.90;;;;;;6276509;22;20659;-80
2021/01/26 11:43:32;;;;;;;21.70;12.53;;;4.20;99.90;;;;;;6276772;22;20763;-80
2021/01/26 11:45:59;;;;;;;17.33;11.13;;;4.20;99.90;;;;;;6276545;22;20949;-81
2021/01/26 11:48:26;;;;;;;17.50;12.85;;;4.20;99.90;;;;;;6286910;22;20486;-80
2021/01/26 11:50:53;;;;;;;22.40;10.60;;;4.10;99.90;;;;;;6285191;22;20176;-80
2021/01/26 11:53:21;;;;;;;16.83;9.70;;;4.10;99.90;;;;;;6286496;22;20963;-80
2021/01/26 11:55:49;;;;;;;18.63;11.67;;;4.20;99.90;;;;;;6286920;22;20405;-81
2021/01/26 11:58:15;;;;;;;17.13;11.00;;;4.10;99.90;;;;;;6276861;22;20469;-81
2021/01/26 12:00:42;;;;;;;22.67;10.37;;;4.20;99.90;;;;;;6286699;22;20406;-81
2021/01/26 12:03:09;;;;;;;14.60;8.43;;;4.10;99.90;;;;;;6278617;22;20394;-80
2021/01/26 12:05:37;;;;;;;25.37;13.50;;;4.20;99.90;;;;;;6274897;22;20887;-80
2021/01/26 12:08:06;;;;;;;14.30;10.80;;;4.30;99.90;;;;;;6276555;22;20954;-81
2021/01/26 12:10:33;;;;;;;20.30;11.35;;;4.30;99.90;;;;;;6276180;22;20394;-81
2021/01/26 12:13:00;;;;;;;16.30;13.27;;;4.30;99.90;;;;;;6276478;22;20660;-81
2021/01/26 12:15:29;;;;;;;18.73;10.90;;;4.40;99.90;;;;;;6276343;22;20402;-81
2021/01/26 12:17:56;;;;;;;32.30;12.63;;;4.50;99.90;;;;;;6276710;22;20411;-80
2021/01/26 12:20:25;;;;;;;19.43;12.53;;;4.40;99.90;;;;;;6275220;22;20882;-80
2021/01/26 12:22:53;;;;;;;19.27;13.30;;;4.30;99.90;;;;;;6276656;22;20494;-80
2021/01/26 12:25:21;;;;;;;18.20;11.77;;;4.40;99.90;;;;;;6276603;22;20435;-81
2021/01/26 12:27:47;;;;;;;26.73;16.20;;;4.60;99.90;;;;;;6277029;22;20434;-81
2021/01/26 12:30:20;;;;;;;16.47;11.40;;;4.60;99.90;;;;;;6286932;22;20402;-80
2021/01/26 12:32:47;;;;;;;17.13;12.40;;;4.60;99.90;;;;;;6286310;22;20442;-81
2021/01/26 12:35:16;;;;;;;20.55;10.90;;;4.80;99.90;;;;;;6274385;22;20407;-80
2021/01/26 12:37:43;;;;;;;19.27;11.57;;;5.00;99.90;;;;;;6276522;22;20558;-80
2021/01/26 12:40:10;;;;;;;15.77;11.30;;;5.00;99.90;;;;;;6277601;22;20441;-81
2021/01/26 12:42:39;;;;;;;21.43;10.10;;;5.00;99.90;;;;;;6286816;22;20413;-80
2021/01/26 12:45:07;;;;;;;18.80;9.60;;;5.10;99.90;;;;;;6286666;22;20472;-81
2021/01/26 12:47:33;;;;;;;17.37;10.37;;;5.10;99.90;;;;;;6276543;22;20541;-80
2021/01/26 12:50:01;;;;;;;15.83;10.27;;;5.20;99.90;;;;;;6274963;22;20460;-81
2021/01/26 12:52:28;;;;;;;25.60;10.47;;;5.20;99.90;;;;;;6276392;22;20430;-81
2021/01/26 12:54:54;;;;;;;11.43;8.07;;;5.20;99.90;;;;;;6286935;22;20438;-81
2021/01/26 12:57:21;;;;;;;18.73;11.87;;;5.30;99.90;;;;;;6278201;22;20902;-81
2021/01/26 12:59:51;;;;;;;19.00;9.10;;;5.60;99.90;;;;;;6278509;22;20402;-81
2021/01/26 13:02:19;;;;;;;15.23;9.03;;;5.80;99.90;;;;;;6288287;22;20406;-80
2021/01/26 13:04:49;;;;;;;18.80;9.97;;;5.90;99.90;;;;;;6276666;22;20443;-81
2021/01/26 13:07:17;;;;;;;13.83;8.53;;;6.00;99.90;;;;;;6288587;22;20435;-81
2021/01/26 13:09:49;;;;;;;11.30;7.73;;;5.90;99.90;;;;;;6278376;22;20407;-84
2021/01/26 13:12:16;;;;;;;17.63;9.10;;;6.00;99.90;;;;;;6276933;22;20739;-81
2021/01/26 13:14:42;;;;;;;17.50;8.83;;;5.80;99.90;;;;;;6277922;22;20402;-81
2021/01/26 13:17:09;;;;;;;14.50;8.20;;;6.00;99.90;;;;;;6288332;22;20433;-81
2021/01/26 13:19:38;;;;;;;14.77;7.93;;;6.20;99.90;;;;;;6286408;22;20445;-81
2021/01/26 13:22:08;;;;;;;18.63;8.43;;;6.50;99.90;;;;;;6278262;22;20486;-81
2021/01/26 13:24:35;;;;;;;11.63;5.80;;;6.60;99.90;;;;;;6275379;22;20816;-81
2021/01/26 13:27:02;;;;;;;9.57;5.43;;;6.80;99.90;;;;;;6278196;22;20395;-81
2021/01/26 13:29:30;;;;;;;13.93;6.50;;;6.50;99.90;;;;;;6287714;22;20411;-82
2021/01/26 13:31:58;;;;;;;11.00;5.37;;;6.20;99.90;;;;;;6277904;22;20430;-82
2021/01/26 13:34:40;;;;;;;;;;;;;;;;;;;;;
2021/01/26 13:37:12;;;;;;;20.50;7.10;;;6.10;99.90;;;;;;6274192;22;20412;-81
2021/01/26 13:39:38;;;;;;;10.07;6.53;;;6.30;99.90;;;;;;6288363;22;20414;-81
2021/01/26 13:42:07;;;;;;;11.77;6.77;;;6.30;99.90;;;;;;6277648;22;20399;-81
2021/01/26 13:44:53;;;;;;;14.23;7.13;;;6.20;99.90;;;;;;6288573;22;20403;-81
2021/01/26 13:47:22;;;;;;;18.53;8.00;;;6.30;99.90;;;;;;6277994;22;20444;-82
2021/01/26 13:49:49;;;;;;;26.57;5.90;;;6.20;99.90;;;;;;6275756;22;20437;-81
2021/01/26 13:52:29;;;;;;;15.07;8.10;;;6.00;99.90;;;;;;6276619;22;20430;-81
2021/01/26 13:55:35;;;;;;;;;;;;;;;;;;;;;
2021/01/26 13:58:02;;;;;;;13.90;7.60;;;5.90;99.90;;;;;;6161792;23;20440;-82
2021/01/26 14:00:30;;;;;;;13.07;7.33;;;5.80;99.90;;;;;;6267039;22;20407;-82
2021/01/26 14:02:58;;;;;;;17.57;6.70;;;5.70;99.90;;;;;;6285763;22;20485;-82
2021/01/26 14:05:29;;;;;;;10.43;7.37;;;5.70;99.90;;;;;;6284504;22;20937;-83
2021/01/26 14:07:57;;;;;;;12.17;6.40;;;5.60;99.90;;;;;;6275691;22;20407;-82
2021/01/26 14:10:25;;;;;;;17.40;7.40;;;5.50;99.90;;;;;;6286249;22;20402;-81
2021/01/26 14:12:52;;;;;;;11.23;7.10;;;5.50;99.90;;;;;;6278764;22;20514;-82
2021/01/26 14:15:32;;;;;;;;;;;;;;;;;;;;;
2021/01/26 14:18:29;;;;;;;15.60;9.40;;;5.50;99.90;;;;;;6259489;22;20403;-81
2021/01/26 14:20:59;;;;;;;16.53;7.83;;;5.30;99.90;;;;;;6264242;22;20452;-81
2021/01/26 14:23:30;;;;;;;18.20;8.20;;;5.30;99.90;;;;;;6276193;22;20478;-81
2021/01/26 14:25:58;;;;;;;16.47;8.63;;;5.30;99.90;;;;;;6276817;22;20509;-82
2021/01/26 14:28:26;;;;;;;15.27;8.10;;;5.20;99.90;;;;;;6286316;22;20746;-82
2021/01/26 14:30:54;;;;;;;11.73;6.90;;;5.10;99.90;;;;;;6276760;22;20715;-81
2021/01/26 14:33:20;;;;;;;13.02;7.55;;;5.10;99.90;;;;;;6287188;22;20413;-82
2021/01/26 14:35:46;;;;;;;14.20;7.73;;;5.10;99.90;;;;;;6275269;22;20482;-81
2021/01/26 14:38:15;;;;;;;14.93;8.30;;;5.00;99.90;;;;;;6277411;22;20409;-82
2021/01/26 14:40:41;;;;;;;18.25;7.35;;;5.00;99.90;;;;;;6277306;22;20405;-82
2021/01/26 14:43:07;;;;;;;19.48;8.60;;;5.10;99.90;;;;;;6287445;22;20163;-81
2021/01/26 14:45:37;;;;;;;16.37;6.73;;;5.00;99.90;;;;;;6277471;22;20500;-82
2021/01/26 14:48:14;;;;;;;;;;;;;;;;;;;;;
2021/01/26 14:50:48;;;;;;;13.03;8.87;;;5.10;99.90;;;;;;6279773;22;20877;-81
2021/01/26 14:53:20;;;;;;;19.65;9.13;;;5.10;99.90;;;;;;6276816;22;20979;-81
2021/01/26 14:55:46;;;;;;;16.73;8.83;;;5.00;99.90;;;;;;6276898;22;20183;-82
2021/01/26 14:58:19;;;;;;;10.95;6.90;;;5.10;99.90;;;;;;6277356;22;20406;-82
2021/01/26 15:00:48;;;;;;;12.00;6.90;;;5.20;99.90;;;;;;6276898;22;20155;-82
2021/01/26 15:03:17;;;;;;;17.40;7.90;;;5.00;99.90;;;;;;6277339;22;20418;-82
2021/01/26 15:05:43;;;;;;;15.67;9.03;;;5.10;99.90;;;;;;6275767;22;20406;-82
2021/01/26 15:08:12;;;;;;;12.53;8.20;;;5.10;99.90;;;;;;6277233;22;20486;-82
2021/01/26 15:10:39;;;;;;;13.10;7.33;;;5.10;99.90;;;;;;6276706;22;20406;-82
2021/01/26 15:13:14;;;;;;;13.87;7.50;;;5.10;99.90;;;;;;6277048;22;20438;-82
2021/01/26 15:15:46;;;;;;;13.17;7.10;;;5.10;99.90;;;;;;6287399;22;20461;-82
2021/01/26 15:18:13;;;;;;;10.90;6.33;;;5.10;99.90;;;;;;6276615;22;20395;-82
2021/01/26 15:20:43;;;;;;;18.83;8.18;;;5.20;99.90;;;;;;6275452;22;20394;-82
2021/01/26 15:23:09;;;;;;;12.60;7.93;;;5.10;99.90;;;;;;6277193;22;20494;-82
2021/01/26 15:25:39;;;;;;;11.73;7.50;;;5.20;99.90;;;;;;6277046;22;20501;-82
2021/01/26 15:28:07;;;;;;;13.18;8.15;;;5.10;99.90;;;;;;6287111;22;20164;-81
2021/01/26 15:30:33;;;;;;;17.63;8.07;;;5.20;99.90;;;;;;6286895;22;20163;-82
2021/01/26 15:33:01;;;;;;;13.00;7.00;;;5.30;99.90;;;;;;6276902;22;20190;-82
2021/01/26 15:35:29;;;;;;;15.73;7.05;;;5.30;99.90;;;;;;6275444;22;20731;-82
2021/01/26 15:37:57;;;;;;;18.10;6.40;;;5.30;99.90;;;;;;6276969;22;20164;-82
2021/01/26 15:40:29;;;;;;;12.70;6.63;;;5.30;99.90;;;;;;6276936;22;20421;-82
2021/01/26 15:43:02;;;;;;;10.80;6.40;;;5.30;99.90;;;;;;6286788;22;20409;-82
2021/01/26 15:45:28;;;;;;;17.50;6.40;;;5.30;99.90;;;;;;6287133;22;20410;-82
2021/01/26 15:48:05;;;;;;;13.20;5.50;;;5.20;99.90;;;;;;6276841;22;20700;-82